sensor_id;sensor_type;location;lat;lon;timestamp;pressure;altitude;pressure_sealevel;temperature;humidity
26112;BME280;13829;48.990;8.346;2023-02-18T00:01:27;101428.28;;;12.59;100.00
26112;BME280;13829;48.990;8.346;2023-02-18T00:03:55;101431.03;;;12.70;100.00
26112;BME280;13829;48.990;8.346;2023-02-18T00:06:26;101438.81;;;12.59;100.00
26112;BME280;13829;48.990;8.346;2023-02-18T00:08:55;101439.69;;;12.60;100.00
26112;BME280;13829;48.990;8.346;2023-02-18T00:11:23;101437.06;;;12.60;100.00
26112;BME280;13829;48.990;8.346;2023-02-18T00:13:52;101432.72;;;12.65;100.00
26112;BME280;13829;48.990;8.346;2023-02-18T00:16:21;101432.72;;;12.65;100.00
26112;BME280;13829;48.990;8.346;2023-02-18T00:18:48;101441.59;;;12.70;100.00
26112;BME280;13829;48.990;8.346;2023-02-18T00:21:16;101444.97;;;12.60;100.00
26112;BME280;13829;48.990;8.346;2023-02-18T00:23:43;101444.97;;;12.60;100.00
26112;BME280;13829;48.990;8.346;2023-02-18T00:26:14;101444.16;;;12.65;100.00
26112;BME280;13829;48.990;8.346;2023-02-18T00:28:42;101444.28;;;12.73;100.00
26112;BME280;13829;48.990;8.346;2023-02-18T00:31:13;101456.50;;;12.68;100.00
26112;BME280;13829;48.990;8.346;2023-02-18T00:33:41;101440.66;;;12.65;100.00
26112;BME280;13829;48.990;8.346;2023-02-18T00:36:12;101436.13;;;12.57;100.00
26112;BME280;13829;48.990;8.346;2023-02-18T00:38:44;101437.84;;;12.54;100.00
26112;BME280;13829;48.990;8.346;2023-02-18T00:41:13;101441.50;;;12.62;100.00
26112;BME280;13829;48.990;8.346;2023-02-18T00:43:40;101436.19;;;12.61;100.00
26112;BME280;13829;48.990;8.346;2023-02-18T00:46:08;101435.25;;;12.55;100.00
26112;BME280;13829;48.990;8.346;2023-02-18T00:48:35;101426.53;;;12.63;100.00
26112;BME280;13829;48.990;8.346;2023-02-18T00:51:04;101442.34;;;12.60;100.00
26112;BME280;13829;48.990;8.346;2023-02-18T00:53:31;101441.41;;;12.57;100.00
26112;BME280;13829;48.990;8.346;2023-02-18T00:55:59;101437.16;;;12.66;100.00
26112;BME280;13829;48.990;8.346;2023-02-18T00:58:27;101436.19;;;12.61;100.00
26112;BME280;13829;48.990;8.346;2023-02-18T01:00:55;101426.50;;;12.60;100.00
26112;BME280;13829;48.990;8.346;2023-02-18T01:03:22;101432.63;;;12.59;100.00
26112;BME280;13829;48.990;8.346;2023-02-18T01:05:50;101427.44;;;12.65;100.00
26112;BME280;13829;48.990;8.346;2023-02-18T01:08:19;101430.84;;;12.54;100.00
26112;BME280;13829;48.990;8.346;2023-02-18T01:10:51;101429.13;;;12.56;100.00
26112;BME280;13829;48.990;8.346;2023-02-18T01:13:18;101427.47;;;12.68;100.00
26112;BME280;13829;48.990;8.346;2023-02-18T01:15:47;101423.00;;;12.61;100.00
26112;BME280;13829;48.990;8.346;2023-02-18T01:18:14;101423.94;;;12.64;100.00
26112;BME280;13829;48.990;8.346;2023-02-18T01:20:43;101423.00;;;12.59;100.00
26112;BME280;13829;48.990;8.346;2023-02-18T01:23:11;101423.94;;;12.66;100.00
26112;BME280;13829;48.990;8.346;2023-02-18T01:25:40;101422.16;;;12.62;100.00
26112;BME280;13829;48.990;8.346;2023-02-18T01:28:10;101422.06;;;12.55;100.00
26112;BME280;13829;48.990;8.346;2023-02-18T01:30:38;101416.78;;;12.55;100.00
26112;BME280;13829;48.990;8.346;2023-02-18T01:33:07;101414.25;;;12.65;100.00
26112;BME280;13829;48.990;8.346;2023-02-18T01:35:36;101416.88;;;12.62;100.00
26112;BME280;13829;48.990;8.346;2023-02-18T01:38:04;101407.94;;;12.53;100.00
26112;BME280;13829;48.990;8.346;2023-02-18T01:40:31;101395.78;;;12.68;100.00
26112;BME280;13829;48.990;8.346;2023-02-18T01:42:57;101411.59;;;12.63;100.00
26112;BME280;13829;48.990;8.346;2023-02-18T01:46:01;101410.66;;;12.60;100.00
26112;BME280;13829;48.990;8.346;2023-02-18T01:48:35;101394.91;;;12.66;100.00
26112;BME280;13829;48.990;8.346;2023-02-18T01:51:10;101407.91;;;12.50;100.00
26112;BME280;13829;48.990;8.346;2023-02-18T01:53:45;101403.59;;;12.55;100.00
26112;BME280;13829;48.990;8.346;2023-02-18T01:56:23;101401.69;;;12.45;100.00
26112;BME280;13829;48.990;8.346;2023-02-18T01:58:54;101400.91;;;12.54;100.00
26112;BME280;13829;48.990;8.346;2023-02-18T02:01:24;101405.19;;;12.44;100.00
26112;BME280;13829;48.990;8.346;2023-02-18T02:03:53;101410.47;;;12.44;100.00
26112;BME280;13829;48.990;8.346;2023-02-18T02:06:23;101406.06;;;12.45;100.00
26112;BME280;13829;48.990;8.346;2023-02-18T02:08:54;101403.34;;;12.38;100.00
26112;BME280;13829;48.990;8.346;2023-02-18T02:12:04;101403.34;;;12.40;100.00
26112;BME280;13829;48.990;8.346;2023-02-18T02:15:13;101406.81;;;12.34;100.00
26112;BME280;13829;48.990;8.346;2023-02-18T02:18:09;101398.88;;;12.33;100.00
26112;BME280;13829;48.990;8.346;2023-02-18T02:21:25;101403.22;;;12.28;100.00
26112;BME280;13829;48.990;8.346;2023-02-18T02:27:49;101402.19;;;12.16;100.00
26112;BME280;13829;48.990;8.346;2023-02-18T02:30:46;101403.94;;;12.17;100.00
26112;BME280;13829;48.990;8.346;2023-02-18T02:36:38;101392.50;;;12.18;100.00
26112;BME280;13829;48.990;8.346;2023-02-18T02:39:19;101385.44;;;12.16;100.00
26112;BME280;13829;48.990;8.346;2023-02-18T02:41:59;101395.06;;;12.12;100.00
26112;BME280;13829;48.990;8.346;2023-02-18T02:44:38;101395.00;;;12.06;100.00
26112;BME280;13829;48.990;8.346;2023-02-18T02:47:13;101395.78;;;12.02;100.00
26112;BME280;13829;48.990;8.346;2023-02-18T02:49:52;101373.81;;;12.00;100.00
26112;BME280;13829;48.990;8.346;2023-02-18T02:52:29;101371.97;;;11.96;100.00
26112;BME280;13829;48.990;8.346;2023-02-18T02:54:57;101369.22;;;11.89;100.00
26112;BME280;13829;48.990;8.346;2023-02-18T02:57:47;101367.50;;;11.93;100.00
26112;BME280;13829;48.990;8.346;2023-02-18T03:00:18;101359.78;;;12.01;100.00
26112;BME280;13829;48.990;8.346;2023-02-18T03:03:08;101352.72;;;12.01;100.00
26112;BME280;13829;48.990;8.346;2023-02-18T03:08:53;101347.56;;;12.07;100.00
26112;BME280;13829;48.990;8.346;2023-02-18T03:11:24;101345.81;;;12.10;100.00
26112;BME280;13829;48.990;8.346;2023-02-18T03:14:03;101337.97;;;12.14;100.00
26112;BME280;13829;48.990;8.346;2023-02-18T03:16:36;101331.84;;;12.17;100.00
26112;BME280;13829;48.990;8.346;2023-02-18T03:19:18;101331.72;;;12.06;100.00
26112;BME280;13829;48.990;8.346;2023-02-18T03:21:52;101335.16;;;12.02;100.00
26112;BME280;13829;48.990;8.346;2023-02-18T03:24:28;101334.28;;;12.03;100.00
26112;BME280;13829;48.990;8.346;2023-02-18T03:27:04;101331.66;;;12.01;100.00
26112;BME280;13829;48.990;8.346;2023-02-18T03:29:33;101328.16;;;12.02;100.00
26112;BME280;13829;48.990;8.346;2023-02-18T03:32:07;101326.59;;;12.18;100.00
26112;BME280;13829;48.990;8.346;2023-02-18T03:34:39;101328.25;;;12.10;100.00
26112;BME280;13829;48.990;8.346;2023-02-18T03:37:10;101326.56;;;12.15;100.00
26112;BME280;13829;48.990;8.346;2023-02-18T03:39:44;101327.41;;;12.13;100.00
26112;BME280;13829;48.990;8.346;2023-02-18T03:42:12;101318.53;;;12.06;100.00
26112;BME280;13829;48.990;8.346;2023-02-18T03:44:39;101322.03;;;12.05;100.00
26112;BME280;13829;48.990;8.346;2023-02-18T03:47:06;101327.34;;;12.10;100.00
26112;BME280;13829;48.990;8.346;2023-02-18T03:49:33;101314.91;;;11.99;100.00
26112;BME280;13829;48.990;8.346;2023-02-18T03:52:00;101326.47;;;12.11;100.00
26112;BME280;13829;48.990;8.346;2023-02-18T03:54:27;101315.00;;;12.07;100.00
26112;BME280;13829;48.990;8.346;2023-02-18T03:56:55;101312.28;;;11.99;100.00
26112;BME280;13829;48.990;8.346;2023-02-18T03:59:22;101308.88;;;12.10;100.00
26112;BME280;13829;48.990;8.346;2023-02-18T04:01:48;101306.13;;;12.00;100.00
26112;BME280;13829;48.990;8.346;2023-02-18T04:04:15;101305.25;;;12.00;100.00
26112;BME280;13829;48.990;8.346;2023-02-18T04:06:42;101309.50;;;11.93;100.00
26112;BME280;13829;48.990;8.346;2023-02-18T04:09:09;101302.53;;;11.95;100.00
26112;BME280;13829;48.990;8.346;2023-02-18T04:11:38;101317.41;;;11.93;100.00
26112;BME280;13829;48.990;8.346;2023-02-18T04:14:07;101314.88;;;11.98;100.00
26112;BME280;13829;48.990;8.346;2023-02-18T04:16:34;101320.25;;;12.04;100.00
26112;BME280;13829;48.990;8.346;2023-02-18T04:19:01;101313.28;;;12.09;100.00
26112;BME280;13829;48.990;8.346;2023-02-18T04:21:28;101315.81;;;12.01;100.00
26112;BME280;13829;48.990;8.346;2023-02-18T04:23:55;101318.47;;;12.01;100.00
26112;BME280;13829;48.990;8.346;2023-02-18T04:26:22;101311.34;;;11.96;100.00
26112;BME280;13829;48.990;8.346;2023-02-18T04:28:48;101306.88;;;11.93;100.00
26112;BME280;13829;48.990;8.346;2023-02-18T04:31:17;101310.47;;;11.97;100.00
26112;BME280;13829;48.990;8.346;2023-02-18T04:33:44;101313.06;;;11.95;100.00
26112;BME280;13829;48.990;8.346;2023-02-18T04:36:11;101321.88;;;11.96;100.00
26112;BME280;13829;48.990;8.346;2023-02-18T04:38:38;101307.91;;;12.00;100.00
26112;BME280;13829;48.990;8.346;2023-02-18T04:41:06;101307.84;;;11.97;100.00
26112;BME280;13829;48.990;8.346;2023-02-18T04:43:33;101306.00;;;11.93;100.00
26112;BME280;13829;48.990;8.346;2023-02-18T04:46:00;101312.78;;;11.77;100.00
26112;BME280;13829;48.990;8.346;2023-02-18T04:48:29;101317.31;;;11.85;100.00
26112;BME280;13829;48.990;8.346;2023-02-18T04:50:56;101317.47;;;11.95;100.00
26112;BME280;13829;48.990;8.346;2023-02-18T04:53:23;101310.41;;;11.94;100.00
26112;BME280;13829;48.990;8.346;2023-02-18T04:55:50;101312.25;;;11.98;100.00
26112;BME280;13829;48.990;8.346;2023-02-18T04:58:17;101306.81;;;11.88;100.00
26112;BME280;13829;48.990;8.346;2023-02-18T05:00:45;101298.22;;;12.00;100.00
26112;BME280;13829;48.990;8.346;2023-02-18T05:03:14;101315.63;;;11.90;100.00
26112;BME280;13829;48.990;8.346;2023-02-18T05:05:42;101300.63;;;11.85;100.00
26112;BME280;13829;48.990;8.346;2023-02-18T05:08:10;101302.44;;;11.90;100.00
26112;BME280;13829;48.990;8.346;2023-02-18T05:10:37;101304.22;;;11.93;100.00
26112;BME280;13829;48.990;8.346;2023-02-18T05:13:05;101299.78;;;11.87;100.00
26112;BME280;13829;48.990;8.346;2023-02-18T05:15:32;101298.25;;;12.02;100.00
26112;BME280;13829;48.990;8.346;2023-02-18T05:17:58;101296.19;;;11.82;100.00
26112;BME280;13829;48.990;8.346;2023-02-18T05:20:25;101292.72;;;11.86;100.00
26112;BME280;13829;48.990;8.346;2023-02-18T05:22:54;101286.63;;;11.89;100.00
26112;BME280;13829;48.990;8.346;2023-02-18T05:25:21;101272.50;;;11.85;100.00
26112;BME280;13829;48.990;8.346;2023-02-18T05:27:48;101281.25;;;11.81;100.00
26112;BME280;13829;48.990;8.346;2023-02-18T05:30:15;101283.03;;;11.84;100.00
26112;BME280;13829;48.990;8.346;2023-02-18T05:32:42;101285.75;;;11.88;100.00
26112;BME280;13829;48.990;8.346;2023-02-18T05:35:09;101272.56;;;11.90;100.00
26112;BME280;13829;48.990;8.346;2023-02-18T05:37:36;101275.22;;;11.91;100.00
26112;BME280;13829;48.990;8.346;2023-02-18T05:40:06;101266.56;;;11.99;100.00
26112;BME280;13829;48.990;8.346;2023-02-18T05:42:33;101268.28;;;11.97;100.00
26112;BME280;13829;48.990;8.346;2023-02-18T05:45:00;101263.78;;;11.89;100.00
26112;BME280;13829;48.990;8.346;2023-02-18T05:47:27;101267.50;;;12.01;100.00
26112;BME280;13829;48.990;8.346;2023-02-18T05:49:54;101267.50;;;12.02;100.00
26112;BME280;13829;48.990;8.346;2023-02-18T05:52:21;101266.66;;;12.05;100.00
26112;BME280;13829;48.990;8.346;2023-02-18T05:54:48;101275.44;;;12.04;100.00
26112;BME280;13829;48.990;8.346;2023-02-18T05:57:16;101267.53;;;12.04;100.00
26112;BME280;13829;48.990;8.346;2023-02-18T05:59:43;101271.84;;;11.99;100.00
26112;BME280;13829;48.990;8.346;2023-02-18T06:02:10;101269.28;;;12.05;100.00
26112;BME280;13829;48.990;8.346;2023-02-18T06:04:37;101259.59;;;12.04;100.00
26112;BME280;13829;48.990;8.346;2023-02-18T06:07:05;101266.69;;;12.08;100.00
26112;BME280;13829;48.990;8.346;2023-02-18T06:09:32;101261.31;;;11.99;100.00
26112;BME280;13829;48.990;8.346;2023-02-18T06:11:59;101272.72;;;11.99;100.00
26112;BME280;13829;48.990;8.346;2023-02-18T06:14:27;101270.16;;;12.04;100.00
26112;BME280;13829;48.990;8.346;2023-02-18T06:16:54;101264.78;;;11.98;100.00
26112;BME280;13829;48.990;8.346;2023-02-18T06:19:21;101261.41;;;12.08;100.00
26112;BME280;13829;48.990;8.346;2023-02-18T06:21:48;101263.22;;;12.12;100.00
26112;BME280;13829;48.990;8.346;2023-02-18T06:24:15;101272.88;;;12.12;100.00
26112;BME280;13829;48.990;8.346;2023-02-18T06:26:42;101272.00;;;12.11;100.00
26112;BME280;13829;48.990;8.346;2023-02-18T06:29:09;101276.47;;;12.17;100.00
26112;BME280;13829;48.990;8.346;2023-02-18T06:31:37;101268.47;;;12.12;100.00
26112;BME280;13829;48.990;8.346;2023-02-18T06:34:04;101274.69;;;12.14;100.00
26112;BME280;13829;48.990;8.346;2023-02-18T06:36:31;101271.19;;;12.15;100.00
26112;BME280;13829;48.990;8.346;2023-02-18T06:38:58;101268.47;;;12.12;100.00
26112;BME280;13829;48.990;8.346;2023-02-18T06:41:25;101270.31;;;12.16;100.00
26112;BME280;13829;48.990;8.346;2023-02-18T06:43:52;101265.13;;;12.26;100.00
26112;BME280;13829;48.990;8.346;2023-02-18T06:46:19;101276.56;;;12.24;100.00
26112;BME280;13829;48.990;8.346;2023-02-18T06:48:47;101265.19;;;12.29;100.00
26112;BME280;13829;48.990;8.346;2023-02-18T06:51:14;101270.25;;;12.13;100.00
26112;BME280;13829;48.990;8.346;2023-02-18T06:53:42;101264.19;;;12.17;100.00
26112;BME280;13829;48.990;8.346;2023-02-18T06:56:09;101249.31;;;12.26;100.00
26112;BME280;13829;48.990;8.346;2023-02-18T06:58:37;101245.91;;;12.36;100.00
26112;BME280;13829;48.990;8.346;2023-02-18T07:01:04;101240.63;;;12.33;100.00
26112;BME280;13829;48.990;8.346;2023-02-18T07:03:31;101239.63;;;12.26;100.00
26112;BME280;13829;48.990;8.346;2023-02-18T07:05:59;101238.00;;;12.36;100.00
26112;BME280;13829;48.990;8.346;2023-02-18T07:08:27;101235.34;;;12.33;100.00
26112;BME280;13829;48.990;8.346;2023-02-18T07:10:55;101233.59;;;12.35;100.00
26112;BME280;13829;48.990;8.346;2023-02-18T07:13:22;101234.53;;;12.40;100.00
26112;BME280;13829;48.990;8.346;2023-02-18T07:15:49;101231.00;;;12.41;100.00
26112;BME280;13829;48.990;8.346;2023-02-18T07:18:16;101224.94;;;12.45;100.00
26112;BME280;13829;48.990;8.346;2023-02-18T07:20:43;101223.22;;;12.50;100.00
26112;BME280;13829;48.990;8.346;2023-02-18T07:23:11;101224.09;;;12.54;100.00
26112;BME280;13829;48.990;8.346;2023-02-18T07:25:38;101216.22;;;12.55;100.00
26112;BME280;13829;48.990;8.346;2023-02-18T07:28:05;101219.75;;;12.56;100.00
26112;BME280;13829;48.990;8.346;2023-02-18T07:30:32;101215.38;;;12.60;100.00
26112;BME280;13829;48.990;8.346;2023-02-18T07:32:59;101206.63;;;12.64;100.00
26112;BME280;13829;48.990;8.346;2023-02-18T07:35:26;101211.94;;;12.67;100.00
26112;BME280;13829;48.990;8.346;2023-02-18T07:37:53;101212.88;;;12.72;100.00
26112;BME280;13829;48.990;8.346;2023-02-18T07:40:23;101208.50;;;12.77;99.18
26112;BME280;13829;48.990;8.346;2023-02-18T07:42:50;101204.16;;;12.82;98.93
26112;BME280;13829;48.990;8.346;2023-02-18T07:45:17;101212.94;;;12.81;99.13
26112;BME280;13829;48.990;8.346;2023-02-18T07:47:44;101205.03;;;12.81;98.80
26112;BME280;13829;48.990;8.346;2023-02-18T07:50:11;101208.59;;;12.88;98.41
26112;BME280;13829;48.990;8.346;2023-02-18T07:52:38;101210.31;;;12.83;97.79
26112;BME280;13829;48.990;8.346;2023-02-18T07:55:06;101204.22;;;12.87;97.96
26112;BME280;13829;48.990;8.346;2023-02-18T07:57:35;101215.66;;;12.89;97.37
26112;BME280;13829;48.990;8.346;2023-02-18T08:00:22;101205.13;;;12.97;96.47
26112;BME280;13829;48.990;8.346;2023-02-18T08:02:49;101213.06;;;12.98;96.43
26112;BME280;13829;48.990;8.346;2023-02-18T08:05:16;101208.75;;;13.10;95.70
26112;BME280;13829;48.990;8.346;2023-02-18T08:07:44;101214.94;;;13.10;95.55
26112;BME280;13829;48.990;8.346;2023-02-18T08:10:11;101207.88;;;13.12;95.16
26112;BME280;13829;48.990;8.346;2023-02-18T08:12:39;101196.41;;;13.07;95.07
26112;BME280;13829;48.990;8.346;2023-02-18T08:15:07;101196.44;;;13.09;95.62
26112;BME280;13829;48.990;8.346;2023-02-18T08:17:34;101196.50;;;13.16;94.88
26112;BME280;13829;48.990;8.346;2023-02-18T08:20:01;101194.78;;;13.25;94.94
26112;BME280;13829;48.990;8.346;2023-02-18T08:22:28;101185.94;;;13.21;94.25
26112;BME280;13829;48.990;8.346;2023-02-18T08:24:54;101186.84;;;13.26;94.76
26112;BME280;13829;48.990;8.346;2023-02-18T08:27:22;101190.44;;;13.34;93.00
26112;BME280;13829;48.990;8.346;2023-02-18T08:29:51;101186.94;;;13.34;93.28
26112;BME280;13829;48.990;8.346;2023-02-18T08:32:18;101190.56;;;13.48;91.57
26112;BME280;13829;48.990;8.346;2023-02-18T08:34:45;101192.38;;;13.59;91.62
26112;BME280;13829;48.990;8.346;2023-02-18T08:37:12;101177.41;;;13.61;91.16
26112;BME280;13829;48.990;8.346;2023-02-18T08:39:39;101181.84;;;13.65;90.21
26112;BME280;13829;48.990;8.346;2023-02-18T08:42:06;101178.22;;;13.49;91.11
26112;BME280;13829;48.990;8.346;2023-02-18T08:44:33;101181.81;;;13.56;91.89
26112;BME280;13829;48.990;8.346;2023-02-18T08:47:01;101193.31;;;13.68;90.58
26112;BME280;13829;48.990;8.346;2023-02-18T08:49:28;101187.13;;;13.68;90.67
26112;BME280;13829;48.990;8.346;2023-02-18T08:51:55;101183.66;;;13.78;90.84
26112;BME280;13829;48.990;8.346;2023-02-18T08:54:22;101186.34;;;13.86;89.49
26112;BME280;13829;48.990;8.346;2023-02-18T08:56:54;101179.28;;;13.83;90.13
26112;BME280;13829;48.990;8.346;2023-02-18T08:59:22;101173.97;;;13.76;90.17
26112;BME280;13829;48.990;8.346;2023-02-18T09:01:49;101186.31;;;13.81;89.58
26112;BME280;13829;48.990;8.346;2023-02-18T09:04:18;101179.31;;;13.90;89.20
26112;BME280;13829;48.990;8.346;2023-02-18T09:06:46;101194.22;;;13.75;89.43
26112;BME280;13829;48.990;8.346;2023-02-18T09:09:15;101175.72;;;13.72;89.55
26112;BME280;13829;48.990;8.346;2023-02-18T09:11:42;101174.78;;;13.61;91.14
26112;BME280;13829;48.990;8.346;2023-02-18T09:14:09;101180.06;;;13.61;91.72
26112;BME280;13829;48.990;8.346;2023-02-18T09:16:38;101178.28;;;13.60;91.89
26112;BME280;13829;48.990;8.346;2023-02-18T09:19:06;101173.03;;;13.69;91.70
26112;BME280;13829;48.990;8.346;2023-02-18T09:21:35;101181.88;;;13.74;91.06
26112;BME280;13829;48.990;8.346;2023-02-18T09:24:02;101202.16;;;13.75;90.99
26112;BME280;13829;48.990;8.346;2023-02-18T09:26:29;101182.81;;;13.84;89.69
26112;BME280;13829;48.990;8.346;2023-02-18T09:28:56;101174.88;;;13.92;89.41
26112;BME280;13829;48.990;8.346;2023-02-18T09:31:26;101174.94;;;14.04;89.00
26112;BME280;13829;48.990;8.346;2023-02-18T09:33:56;101180.28;;;14.16;87.78
26112;BME280;13829;48.990;8.346;2023-02-18T09:36:25;101183.81;;;14.20;86.90
26112;BME280;13829;48.990;8.346;2023-02-18T09:38:53;101178.50;;;14.18;86.31
26112;BME280;13829;48.990;8.346;2023-02-18T09:41:31;101176.72;;;14.11;86.25
26112;BME280;13829;48.990;8.346;2023-02-18T09:44:04;101174.94;;;14.13;85.89
26112;BME280;13829;48.990;8.346;2023-02-18T09:46:36;101175.84;;;14.09;85.93
26112;BME280;13829;48.990;8.346;2023-02-18T09:49:13;101162.56;;;13.97;85.91
26112;BME280;13829;48.990;8.346;2023-02-18T09:51:42;101156.38;;;13.92;86.29
26112;BME280;13829;48.990;8.346;2023-02-18T09:54:14;101168.78;;;14.03;86.40
26112;BME280;13829;48.990;8.346;2023-02-18T09:56:43;101168.78;;;14.07;85.50
26112;BME280;13829;48.990;8.346;2023-02-18T09:59:16;101167.94;;;14.22;85.04
26112;BME280;13829;48.990;8.346;2023-02-18T10:01:46;101176.72;;;14.24;85.30
26112;BME280;13829;48.990;8.346;2023-02-18T10:04:21;101187.34;;;14.30;84.23
26112;BME280;13829;48.990;8.346;2023-02-18T10:06:51;101184.69;;;14.28;83.95
26112;BME280;13829;48.990;8.346;2023-02-18T10:09:24;101190.00;;;14.33;84.11
26112;BME280;13829;48.990;8.346;2023-02-18T10:11:57;101192.66;;;14.36;84.53
26112;BME280;13829;48.990;8.346;2023-02-18T10:14:27;101197.97;;;14.39;83.67
26112;BME280;13829;48.990;8.346;2023-02-18T10:16:56;101197.94;;;14.36;84.52
26112;BME280;13829;48.990;8.346;2023-02-18T10:19:32;101205.88;;;14.28;83.78
26112;BME280;13829;48.990;8.346;2023-02-18T10:22:01;101202.28;;;14.11;84.71
26112;BME280;13829;48.990;8.346;2023-02-18T10:24:34;101209.34;;;14.09;84.87
26112;BME280;13829;48.990;8.346;2023-02-18T10:27:05;101205.75;;;13.94;85.85
26112;BME280;13829;48.990;8.346;2023-02-18T10:29:32;101206.63;;;13.92;86.46
26112;BME280;13829;48.990;8.346;2023-02-18T10:32:08;101210.09;;;13.81;86.50
26112;BME280;13829;48.990;8.346;2023-02-18T10:34:46;101215.41;;;13.83;86.64
26112;BME280;13829;48.990;8.346;2023-02-18T10:37:34;101213.66;;;13.83;86.49
26112;BME280;13829;48.990;8.346;2023-02-18T10:40:19;101203.06;;;13.86;87.02
26112;BME280;13829;48.990;8.346;2023-02-18T10:43:02;101181.09;;;13.94;87.39
26112;BME280;13829;48.990;8.346;2023-02-18T10:45:43;101194.31;;;14.00;87.03
26112;BME280;13829;48.990;8.346;2023-02-18T10:48:43;101187.34;;;14.19;87.23
26112;BME280;13829;48.990;8.346;2023-02-18T10:51:18;101198.78;;;14.15;87.45
26112;BME280;13829;48.990;8.346;2023-02-18T10:53:50;101162.59;;;14.09;87.38
26112;BME280;13829;48.990;8.346;2023-02-18T10:56:38;101202.31;;;14.17;87.55
26112;BME280;13829;48.990;8.346;2023-02-18T10:59:12;101171.41;;;14.07;87.04
26112;BME280;13829;48.990;8.346;2023-02-18T11:01:41;101180.25;;;14.10;87.79
26112;BME280;13829;48.990;8.346;2023-02-18T11:04:15;101187.31;;;14.14;87.03
26112;BME280;13829;48.990;8.346;2023-02-18T11:06:47;101184.66;;;14.11;87.60
26112;BME280;13829;48.990;8.346;2023-02-18T11:09:28;101180.28;;;14.16;86.53
26112;BME280;13829;48.990;8.346;2023-02-18T11:12:04;101176.75;;;14.27;85.83
26112;BME280;13829;48.990;8.346;2023-02-18T11:14:42;101166.22;;;14.45;85.71
26112;BME280;13829;48.990;8.346;2023-02-18T11:17:18;101182.09;;;14.64;85.68
26112;BME280;13829;48.990;8.346;2023-02-18T11:19:53;101170.66;;;14.66;83.42
26112;BME280;13829;48.990;8.346;2023-02-18T11:22:23;101173.31;;;14.77;83.68
26112;BME280;13829;48.990;8.346;2023-02-18T11:24:58;101181.25;;;14.82;83.22
26112;BME280;13829;48.990;8.346;2023-02-18T11:27:31;101174.22;;;14.81;82.96
26112;BME280;13829;48.990;8.346;2023-02-18T11:30:05;101159.16;;;14.91;82.27
26112;BME280;13829;48.990;8.346;2023-02-18T11:32:34;101163.63;;;14.87;82.79
26112;BME280;13829;48.990;8.346;2023-02-18T11:35:03;101172.44;;;14.94;81.38
26112;BME280;13829;48.990;8.346;2023-02-18T11:37:32;101169.78;;;14.75;81.55
26112;BME280;13829;48.990;8.346;2023-02-18T11:40:01;101183.88;;;14.68;82.43
26112;BME280;13829;48.990;8.346;2023-02-18T11:42:30;101173.25;;;14.46;83.37
26112;BME280;13829;48.990;8.346;2023-02-18T11:44:59;101182.09;;;14.45;84.33
26112;BME280;13829;48.990;8.346;2023-02-18T11:47:30;101178.56;;;14.51;84.47
26112;BME280;13829;48.990;8.346;2023-02-18T11:50:14;101172.38;;;14.37;85.58
26112;BME280;13829;48.990;8.346;2023-02-18T11:52:44;101168.84;;;14.47;86.43
26112;BME280;13829;48.990;8.346;2023-02-18T11:55:18;101178.53;;;14.40;85.48
26112;BME280;13829;48.990;8.346;2023-02-18T11:57:54;101178.53;;;14.46;85.31
26112;BME280;13829;48.990;8.346;2023-02-18T12:00:28;101170.59;;;14.46;85.37
26112;BME280;13829;48.990;8.346;2023-02-18T12:02:59;101171.50;;;14.42;86.40
26112;BME280;13829;48.990;8.346;2023-02-18T12:05:31;101177.66;;;14.49;85.31
26112;BME280;13829;48.990;8.346;2023-02-18T12:08:04;101166.19;;;14.31;86.60
26112;BME280;13829;48.990;8.346;2023-02-18T12:10:39;101166.16;;;14.21;87.50
26112;BME280;13829;48.990;8.346;2023-02-18T12:13:22;101169.69;;;14.15;87.33
26112;BME280;13829;48.990;8.346;2023-02-18T12:16:03;101176.72;;;14.07;87.66
26112;BME280;13829;48.990;8.346;2023-02-18T12:18:51;101166.97;;;13.95;89.02
26112;BME280;13829;48.990;8.346;2023-02-18T12:21:35;101162.59;;;14.00;90.25
26112;BME280;13829;48.990;8.346;2023-02-18T12:24:23;101165.22;;;14.00;89.22
26112;BME280;13829;48.990;8.346;2023-02-18T12:27:04;101150.25;;;13.99;89.51
26112;BME280;13829;48.990;8.346;2023-02-18T12:30:18;101138.78;;;14.01;89.63
26112;BME280;13829;48.990;8.346;2023-02-18T12:32:55;101148.47;;;14.06;88.97
26112;BME280;13829;48.990;8.346;2023-02-18T12:35:44;101145.84;;;14.04;88.63
26112;BME280;13829;48.990;8.346;2023-02-18T12:42:05;101137.94;;;14.10;89.00
26112;BME280;13829;48.990;8.346;2023-02-18T12:45:01;101136.16;;;14.12;88.43
26112;BME280;13829;48.990;8.346;2023-02-18T12:48:10;101139.69;;;14.11;87.76
26112;BME280;13829;48.990;8.346;2023-02-18T12:50:56;101144.94;;;13.99;88.47
26112;BME280;13829;48.990;8.346;2023-02-18T12:53:48;101151.09;;;13.99;88.17
26112;BME280;13829;48.990;8.346;2023-02-18T12:56:51;101142.31;;;14.00;87.42
26112;BME280;13829;48.990;8.346;2023-02-18T12:59:59;101150.22;;;14.02;87.00
26112;BME280;13829;48.990;8.346;2023-02-18T13:05:42;101140.53;;;13.99;87.17
26112;BME280;13829;48.990;8.346;2023-02-18T13:08:27;101143.16;;;13.93;87.18
26112;BME280;13829;48.990;8.346;2023-02-18T13:11:12;101139.66;;;14.02;87.24
26112;BME280;13829;48.990;8.346;2023-02-18T13:13:48;101123.75;;;13.96;85.78
26112;BME280;13829;48.990;8.346;2023-02-18T13:16:20;101137.03;;;14.03;85.11
26112;BME280;13829;48.990;8.346;2023-02-18T13:18:59;101129.09;;;14.16;83.64
26112;BME280;13829;48.990;8.346;2023-02-18T13:21:28;101118.53;;;14.11;81.62
26112;BME280;13829;48.990;8.346;2023-02-18T13:23:59;101130.00;;;14.15;81.34
26112;BME280;13829;48.990;8.346;2023-02-18T13:26:30;101118.53;;;14.11;78.22